Time;durP1;ratioP1;P1;durP2;ratioP2;P2;SDS_P1;SDS_P2;PMS_P1;PMS_P2;Temp;Humidity;BMP_temperature;BMP_pressure;BME280_temperature;BME280_humidity;BME280_pressure;Samples;Min_cycle;Max_cycle;Signal;HPM_P1;HPM_P2
2020/12/23 00:01:21;;;;;;;2.22;0.63;;;13.00;99.90;;;;;;5011648;28;20022;-66
2020/12/23 00:03:47;;;;;;;2.13;0.43;;;13.00;99.90;;;;;;5011458;28;20073;-65
2020/12/23 00:06:13;;;;;;;0.93;0.77;;;13.00;99.90;;;;;;5011794;28;20448;-65
2020/12/23 00:08:39;;;;;;;0.95;0.60;;;13.10;99.90;;;;;;5012489;28;20022;-66
2020/12/23 00:11:04;;;;;;;0.45;0.45;;;13.10;99.90;;;;;;5013914;28;20033;-66
2020/12/23 00:13:30;;;;;;;0.40;0.40;;;13.00;99.90;;;;;;5016607;28;20534;-66
2020/12/23 00:15:56;;;;;;;0.52;0.52;;;12.90;99.90;;;;;;5016662;28;20042;-66
2020/12/23 00:18:22;;;;;;;0.60;0.60;;;12.90;99.90;;;;;;5016414;28;20034;-66
2020/12/23 00:20:48;;;;;;;0.60;0.60;;;13.00;99.90;;;;;;5017002;28;20101;-66
2020/12/23 00:23:14;;;;;;;0.52;0.52;;;13.00;99.90;;;;;;5016638;28;20065;-66
2020/12/23 00:25:39;;;;;;;1.25;0.52;;;13.00;99.90;;;;;;5016340;28;20046;-66
2020/12/23 00:28:05;;;;;;;0.50;0.50;;;13.00;99.90;;;;;;5015536;28;20034;-66
2020/12/23 00:30:30;;;;;;;0.50;0.50;;;13.00;99.90;;;;;;5015073;28;20069;-66
2020/12/23 00:32:56;;;;;;;1.13;0.60;;;13.10;99.90;;;;;;5015116;28;20451;-65
2020/12/23 00:35:22;;;;;;;0.50;0.50;;;13.00;99.90;;;;;;5015092;28;20475;-66
2020/12/23 00:37:47;;;;;;;0.77;0.40;;;13.00;99.90;;;;;;5013877;28;20367;-65
2020/12/23 00:40:13;;;;;;;0.88;0.45;;;13.00;99.90;;;;;;5014968;28;20018;-66
2020/12/23 00:42:39;;;;;;;2.17;0.45;;;12.90;99.90;;;;;;5014640;28;20026;-66
2020/12/23 00:45:05;;;;;;;0.93;0.93;;;12.90;99.90;;;;;;5014850;28;20033;-65
2020/12/23 00:47:30;;;;;;;0.50;0.50;;;12.80;99.90;;;;;;5015025;28;20037;-65
2020/12/23 00:49:56;;;;;;;0.52;0.47;;;12.80;99.90;;;;;;5014919;28;20072;-65
2020/12/23 00:52:22;;;;;;;1.00;0.40;;;12.80;99.90;;;;;;5014955;28;20025;-65
2020/12/23 00:54:47;;;;;;;0.65;0.65;;;12.90;99.90;;;;;;5014348;28;20068;-66
2020/12/23 00:57:13;;;;;;;2.42;0.50;;;13.00;99.90;;;;;;5014788;28;20021;-66
2020/12/23 00:59:39;;;;;;;0.70;0.50;;;13.00;99.90;;;;;;5014086;28;20107;-65
2020/12/23 01:02:05;;;;;;;3.05;0.50;;;13.00;99.90;;;;;;5014582;28;20535;-65
2020/12/23 01:04:31;;;;;;;0.73;0.43;;;13.00;99.90;;;;;;5014160;28;20165;-65
2020/12/23 01:06:56;;;;;;;1.65;0.90;;;13.10;99.90;;;;;;5014547;28;20018;-65
2020/12/23 01:09:22;;;;;;;1.05;0.60;;;13.00;99.90;;;;;;5014553;28;20030;-65
2020/12/23 01:11:49;;;;;;;0.77;0.40;;;13.10;99.90;;;;;;5014562;28;20040;-65
2020/12/23 01:14:16;;;;;;;0.50;0.40;;;13.00;99.90;;;;;;5014130;28;20025;-65
2020/12/23 01:16:41;;;;;;;0.52;0.50;;;13.10;99.90;;;;;;5014197;28;20076;-65
2020/12/23 01:19:07;;;;;;;0.38;0.38;;;13.10;99.90;;;;;;5014646;28;20021;-65
2020/12/23 01:21:33;;;;;;;0.63;0.60;;;13.10;99.90;;;;;;5014291;28;20026;-66
2020/12/23 01:23:58;;;;;;;1.58;0.47;;;13.10;99.90;;;;;;5012801;28;20060;-66
2020/12/23 01:26:24;;;;;;;0.60;0.60;;;13.10;99.90;;;;;;5014141;28;20033;-66
2020/12/23 01:28:49;;;;;;;0.50;0.50;;;13.10;99.90;;;;;;5010001;28;20060;-65
2020/12/23 01:31:15;;;;;;;0.73;0.40;;;13.10;99.90;;;;;;5013977;28;20026;-67
2020/12/23 01:33:41;;;;;;;0.40;0.40;;;13.10;99.90;;;;;;5013970;28;20496;-68
2020/12/23 01:36:07;;;;;;;0.30;0.30;;;13.20;99.90;;;;;;5014008;28;20088;-65
2020/12/23 01:38:33;;;;;;;0.50;0.50;;;13.10;99.90;;;;;;5013792;28;20026;-65
2020/12/23 01:41:01;;;;;;;0.30;0.30;;;13.20;99.90;;;;;;5013878;28;20075;-65
2020/12/23 01:43:27;;;;;;;0.38;0.38;;;13.20;99.90;;;;;;5014123;28;20439;-66
2020/12/23 01:45:53;;;;;;;0.32;0.32;;;13.20;99.90;;;;;;5013686;28;20485;-65
2020/12/23 01:48:25;;;;;;;0.52;0.40;;;13.20;99.90;;;;;;5013969;28;20026;-66
2020/12/23 01:50:51;;;;;;;0.28;0.28;;;13.20;99.90;;;;;;5013975;28;20026;-66
2020/12/23 01:53:17;;;;;;;1.17;0.55;;;13.20;99.90;;;;;;5013422;28;20121;-66
2020/12/23 01:55:47;;;;;;;3.03;0.40;;;13.20;99.90;;;;;;5013346;28;20058;-66
2020/12/23 01:58:13;;;;;;;0.63;0.40;;;13.20;99.90;;;;;;5013679;28;20033;-66
2020/12/23 02:00:40;;;;;;;0.40;0.40;;;13.20;99.90;;;;;;5013439;28;20026;-66
2020/12/23 02:03:11;;;;;;;0.77;0.35;;;13.20;99.90;;;;;;5013170;28;20483;-66
2020/12/23 02:05:38;;;;;;;1.20;0.40;;;13.30;99.90;;;;;;5013438;28;20037;-66
2020/12/23 02:08:04;;;;;;;0.40;0.40;;;13.30;99.90;;;;;;5013509;28;20033;-66
2020/12/23 02:10:31;;;;;;;0.30;0.30;;;13.30;99.90;;;;;;5013397;28;20108;-65
2020/12/23 02:12:58;;;;;;;0.60;0.40;;;13.20;99.90;;;;;;5013046;28;20033;-66
2020/12/23 02:15:24;;;;;;;1.88;0.50;;;13.20;99.90;;;;;;5013098;28;20037;-66
2020/12/23 02:17:50;;;;;;;0.40;0.40;;;13.30;99.90;;;;;;5013318;28;20521;-66
2020/12/23 02:20:17;;;;;;;0.93;0.50;;;13.30;99.90;;;;;;5013198;28;20358;-66
2020/12/23 02:22:49;;;;;;;1.50;0.50;;;13.30;99.90;;;;;;5012837;28;20018;-66
2020/12/23 02:25:15;;;;;;;;;;;13.20;99.90;;;;;;5013239;28;20057;-66
2020/12/23 02:27:41;;;;;;;1.92;0.77;;;13.20;99.90;;;;;;5013051;28;20290;-66
2020/12/23 02:30:09;;;;;;;0.35;0.35;;;13.20;99.90;;;;;;5012832;28;20025;-66
2020/12/23 02:32:35;;;;;;;0.30;0.30;;;13.10;99.90;;;;;;5011736;28;20095;-66
2020/12/23 02:35:01;;;;;;;0.73;0.40;;;13.10;99.90;;;;;;5011520;28;20048;-66
2020/12/23 02:37:27;;;;;;;0.30;0.30;;;13.10;99.90;;;;;;5012936;28;20369;-66
2020/12/23 02:39:55;;;;;;;0.30;0.30;;;13.10;99.90;;;;;;5012693;28;20089;-67
2020/12/23 02:42:24;;;;;;;2.95;0.30;;;13.10;99.90;;;;;;5012734;28;20018;-66
2020/12/23 02:44:50;;;;;;;1.08;0.60;;;13.10;99.90;;;;;;5012367;28;20021;-66
2020/12/23 02:47:17;;;;;;;0.38;0.30;;;13.10;99.90;;;;;;5012771;28;20022;-67
2020/12/23 02:49:44;;;;;;;0.40;0.40;;;13.10;99.90;;;;;;5012639;28;20026;-67
2020/12/23 02:52:10;;;;;;;0.40;0.40;;;13.10;99.90;;;;;;5012653;28;20026;-66
2020/12/23 02:54:37;;;;;;;0.60;0.60;;;13.00;99.90;;;;;;5011815;28;20030;-67
2020/12/23 02:57:03;;;;;;;0.68;0.50;;;13.00;99.90;;;;;;5012510;28;20038;-66
2020/12/23 02:59:29;;;;;;;0.50;0.50;;;12.90;99.90;;;;;;5012494;28;20061;-66
2020/12/23 03:01:55;;;;;;;1.08;0.40;;;12.90;99.90;;;;;;5012558;28;20054;-66
2020/12/23 03:04:20;;;;;;;3.20;0.50;;;12.90;99.90;;;;;;5011913;28;20065;-66
2020/12/23 03:06:46;;;;;;;1.52;0.50;;;12.90;99.90;;;;;;5012371;28;20036;-66
2020/12/23 03:09:13;;;;;;;0.40;0.40;;;12.90;99.90;;;;;;5010696;28;20030;-66
2020/12/23 03:11:39;;;;;;;0.35;0.35;;;12.90;99.90;;;;;;5012299;28;20477;-66
2020/12/23 03:14:05;;;;;;;1.90;0.50;;;12.90;99.90;;;;;;5011783;28;20018;-66
2020/12/23 03:16:32;;;;;;;0.40;0.40;;;12.90;99.90;;;;;;5012107;28;20030;-66
2020/12/23 03:18:57;;;;;;;2.45;0.80;;;12.90;99.90;;;;;;5012167;28;20068;-66
2020/12/23 03:21:23;;;;;;;0.57;0.57;;;12.80;99.90;;;;;;5012115;28;20026;-66
2020/12/23 03:23:49;;;;;;;0.95;0.43;;;12.90;99.90;;;;;;5011384;28;20100;-66
2020/12/23 03:26:14;;;;;;;1.65;0.40;;;12.90;99.90;;;;;;5012027;28;20041;-66
2020/12/23 03:28:40;;;;;;;1.30;0.50;;;13.00;99.90;;;;;;5011987;28;20037;-66
2020/12/23 03:31:06;;;;;;;0.35;0.32;;;12.90;99.90;;;;;;5012073;28;20026;-66
2020/12/23 03:33:32;;;;;;;0.40;0.40;;;13.00;99.90;;;;;;5011587;28;20587;-66
2020/12/23 03:35:59;;;;;;;0.45;0.45;;;13.00;99.90;;;;;;5011874;28;20065;-66
2020/12/23 03:38:24;;;;;;;1.20;0.40;;;13.00;99.90;;;;;;5011922;28;20110;-66
2020/12/23 03:40:50;;;;;;;0.32;0.32;;;13.00;99.90;;;;;;5011702;28;20492;-66
2020/12/23 03:43:16;;;;;;;1.92;0.32;;;13.00;99.90;;;;;;5011483;28;20022;-66
2020/12/23 03:45:42;;;;;;;1.17;0.38;;;13.00;99.90;;;;;;5011395;28;20030;-66
2020/12/23 03:48:08;;;;;;;2.20;0.60;;;13.00;99.90;;;;;;5011944;28;20030;-66
2020/12/23 03:50:34;;;;;;;0.30;0.30;;;13.00;99.90;;;;;;5011881;28;20511;-66
2020/12/23 03:53:00;;;;;;;0.50;0.50;;;13.00;99.90;;;;;;5011470;28;20365;-66
2020/12/23 03:55:26;;;;;;;0.40;0.40;;;13.00;99.90;;;;;;5011384;28;20022;-66
2020/12/23 03:57:52;;;;;;;0.60;0.60;;;13.00;99.90;;;;;;5011769;28;20112;-66
2020/12/23 04:00:18;;;;;;;0.70;0.60;;;12.90;99.90;;;;;;5011858;28;20050;-66
2020/12/23 04:02:44;;;;;;;0.43;0.43;;;12.90;99.90;;;;;;5010270;28;20476;-66
2020/12/23 04:05:10;;;;;;;0.52;0.52;;;12.90;99.90;;;;;;5011556;28;20116;-66
2020/12/23 04:07:35;;;;;;;1.50;0.40;;;12.80;99.90;;;;;;5011560;28;20110;-66
2020/12/23 04:10:02;;;;;;;1.35;0.60;;;12.90;99.90;;;;;;5011479;28;20088;-66
2020/12/23 04:12:28;;;;;;;0.40;0.40;;;12.80;99.90;;;;;;5011582;28;20041;-66
2020/12/23 04:14:54;;;;;;;0.40;0.40;;;12.80;99.90;;;;;;5011016;28;20030;-66
2020/12/23 04:17:19;;;;;;;0.40;0.40;;;12.80;99.90;;;;;;5011584;28;20052;-66
2020/12/23 04:19:45;;;;;;;0.75;0.30;;;12.80;99.90;;;;;;5011595;28;20407;-67
2020/12/23 04:22:11;;;;;;;0.50;0.50;;;12.80;99.90;;;;;;5011572;28;20033;-66
2020/12/23 04:24:37;;;;;;;0.40;0.40;;;12.80;99.90;;;;;;5010855;28;20118;-66
2020/12/23 04:27:04;;;;;;;0.40;0.40;;;12.80;99.90;;;;;;5011308;28;20021;-66
2020/12/23 04:29:29;;;;;;;1.05;0.47;;;12.80;99.90;;;;;;5001167;28;20547;-66
2020/12/23 04:31:55;;;;;;;0.77;0.40;;;12.80;99.90;;;;;;4991934;28;20121;-66
2020/12/23 04:34:21;;;;;;;0.40;0.40;;;12.70;99.90;;;;;;4991406;28;20061;-66
2020/12/23 04:36:46;;;;;;;0.40;0.40;;;12.70;99.90;;;;;;4991760;28;20022;-66
2020/12/23 04:39:12;;;;;;;0.57;0.50;;;12.70;99.90;;;;;;4991645;28;20050;-66
2020/12/23 04:41:37;;;;;;;1.52;0.65;;;12.60;99.90;;;;;;4991673;28;20404;-66
2020/12/23 04:44:04;;;;;;;2.35;0.50;;;12.60;99.90;;;;;;4991407;28;20030;-66
2020/12/23 04:46:34;;;;;;;1.85;0.50;;;12.70;99.90;;;;;;4990379;28;20062;-66
2020/12/23 04:49:01;;;;;;;0.40;0.40;;;12.60;99.90;;;;;;4990379;28;20054;-65
2020/12/23 04:51:32;;;;;;;0.60;0.60;;;12.60;99.90;;;;;;4991694;28;20035;-66
2020/12/23 04:53:59;;;;;;;0.60;0.60;;;12.60;99.90;;;;;;4991322;28;20036;-66
2020/12/23 04:56:29;;;;;;;1.85;0.50;;;12.60;99.90;;;;;;4991478;28;20029;-66
2020/12/23 04:58:56;;;;;;;0.93;0.52;;;12.60;99.90;;;;;;4993836;28;20556;-66
2020/12/23 05:01:22;;;;;;;0.93;0.50;;;12.60;99.90;;;;;;4995252;28;20141;-66
2020/12/23 05:03:48;;;;;;;0.43;0.43;;;12.60;99.90;;;;;;4994700;28;20033;-66
2020/12/23 05:06:14;;;;;;;0.50;0.50;;;12.60;99.90;;;;;;4994947;28;20026;-66
2020/12/23 05:08:40;;;;;;;1.55;0.60;;;12.60;99.90;;;;;;4995059;28;20030;-66
2020/12/23 05:11:07;;;;;;;0.70;0.70;;;12.50;99.90;;;;;;4994924;28;20031;-65
2020/12/23 05:13:33;;;;;;;0.50;0.50;;;12.50;99.90;;;;;;4994660;28;20038;-66
2020/12/23 05:15:59;;;;;;;0.50;0.50;;;12.50;99.90;;;;;;4994538;28;20530;-66
2020/12/23 05:18:36;;;;;;;1.95;0.50;;;12.50;99.90;;;;;;4994503;28;20034;-66
2020/12/23 05:21:14;;;;;;;0.60;0.60;;;12.50;99.90;;;;;;4993610;28;20030;-66
2020/12/23 05:23:45;;;;;;;0.50;0.50;;;12.50;99.90;;;;;;4994361;28;20050;-66
2020/12/23 05:26:12;;;;;;;0.70;0.60;;;12.50;99.90;;;;;;4994368;28;20125;-66
2020/12/23 05:28:40;;;;;;;0.50;0.50;;;12.50;99.90;;;;;;4997784;28;20065;-66
2020/12/23 05:31:07;;;;;;;0.40;0.40;;;12.50;99.90;;;;;;5014100;28;20030;-66
2020/12/23 05:33:38;;;;;;;0.73;0.60;;;12.50;99.90;;;;;;5013787;28;20028;-68
2020/12/23 05:36:06;;;;;;;1.48;0.50;;;12.50;99.90;;;;;;5013881;28;20022;-66
2020/12/23 05:38:33;;;;;;;0.40;0.40;;;12.50;99.90;;;;;;5013990;28;20391;-66
2020/12/23 05:41:00;;;;;;;0.82;0.70;;;12.50;99.90;;;;;;5013974;28;20022;-66
2020/12/23 05:43:27;;;;;;;0.57;0.43;;;12.40;99.90;;;;;;5013804;28;20384;-66
2020/12/23 05:45:54;;;;;;;1.30;0.70;;;12.40;99.90;;;;;;5013784;28;20045;-67
2020/12/23 05:48:20;;;;;;;2.15;0.50;;;12.30;99.90;;;;;;5013866;28;20411;-66
2020/12/23 05:50:47;;;;;;;2.53;0.52;;;12.30;99.90;;;;;;5013953;28;20034;-67
2020/12/23 05:53:13;;;;;;;1.80;0.57;;;12.30;99.90;;;;;;5012247;28;20107;-66
2020/12/23 05:55:46;;;;;;;1.88;0.50;;;12.20;99.90;;;;;;5013321;28;20026;-66
2020/12/23 05:58:29;;;;;;;1.40;0.80;;;12.10;99.90;;;;;;5013582;28;20022;-66
2020/12/23 06:00:57;;;;;;;4.35;0.75;;;12.10;99.90;;;;;;4992994;28;20133;-66
2020/12/23 06:03:51;;;;;;;4.05;0.80;;;12.00;99.90;;;;;;4993994;28;20058;-66
2020/12/23 06:06:30;;;;;;;2.10;0.80;;;12.10;99.90;;;;;;4993945;28;20026;-66
2020/12/23 06:08:58;;;;;;;0.82;0.82;;;11.90;99.90;;;;;;4993580;28;20038;-66
2020/12/23 06:11:35;;;;;;;1.73;1.15;;;11.90;99.90;;;;;;4993836;28;20319;-66
2020/12/23 06:14:10;;;;;;;2.65;0.70;;;11.80;99.90;;;;;;4993538;28;20038;-66
2020/12/23 06:16:38;;;;;;;1.05;0.90;;;11.80;99.90;;;;;;4993707;28;20407;-66
2020/12/23 06:19:07;;;;;;;1.52;0.85;;;11.80;99.90;;;;;;4992902;28;20018;-66
2020/12/23 06:21:32;;;;;;;0.93;0.93;;;11.70;99.90;;;;;;4993351;28;20053;-67
2020/12/23 06:24:04;;;;;;;0.80;0.80;;;11.60;99.90;;;;;;4992536;28;20473;-66
2020/12/23 06:26:35;;;;;;;1.83;0.77;;;11.60;99.90;;;;;;4993463;28;20393;-66
2020/12/23 06:29:06;;;;;;;1.92;0.80;;;11.60;99.90;;;;;;4998551;28;20069;-67
2020/12/23 06:31:52;;;;;;;1.92;1.00;;;11.60;99.90;;;;;;5012913;28;20026;-67
2020/12/23 06:34:38;;;;;;;2.78;1.25;;;11.60;99.90;;;;;;5012242;28;20073;-66
2020/12/23 06:37:24;;;;;;;1.10;1.00;;;11.50;99.90;;;;;;5012829;28;20048;-66
2020/12/23 06:39:51;;;;;;;1.15;1.15;;;11.60;99.90;;;;;;5012577;28;20029;-66
2020/12/23 06:42:16;;;;;;;2.85;1.30;;;11.50;99.90;;;;;;5012836;28;20449;-66
2020/12/23 06:44:42;;;;;;;1.27;0.95;;;11.40;99.90;;;;;;5012464;28;20129;-66
2020/12/23 06:47:30;;;;;;;0.90;0.90;;;11.50;99.90;;;;;;5012694;28;20029;-66
2020/12/23 06:50:00;;;;;;;1.00;1.00;;;11.50;99.90;;;;;;5012611;28;20097;-66
2020/12/23 06:52:28;;;;;;;0.93;0.93;;;11.40;99.90;;;;;;5012622;28;20101;-66
2020/12/23 06:54:56;;;;;;;1.40;1.17;;;11.50;99.90;;;;;;5008028;28;20126;-70
2020/12/23 06:57:37;;;;;;;1.60;1.50;;;11.40;99.90;;;;;;5002576;28;20525;-66
2020/12/23 07:00:23;;;;;;;1.00;1.00;;;11.40;99.90;;;;;;5007577;28;20040;-66
2020/12/23 07:02:55;;;;;;;2.00;1.48;;;11.50;99.90;;;;;;5007760;28;20643;-67
2020/12/23 07:05:20;;;;;;;1.42;1.33;;;11.40;99.90;;;;;;5012003;28;20029;-68
2020/12/23 07:07:47;;;;;;;1.58;1.05;;;11.50;99.90;;;;;;5011925;28;20076;-68
2020/12/23 07:10:14;;;;;;;1.60;1.30;;;11.50;99.90;;;;;;5011668;28;20498;-69
2020/12/23 07:12:49;;;;;;;2.22;1.73;;;11.50;99.90;;;;;;5004980;28;20033;-69
2020/12/23 07:15:23;;;;;;;4.03;1.35;;;11.50;99.90;;;;;;5010439;28;20117;-69
2020/12/23 07:17:56;;;;;;;1.30;1.20;;;11.60;99.90;;;;;;5006562;28;20021;-69
2020/12/23 07:20:23;;;;;;;1.05;1.00;;;11.60;99.90;;;;;;4995442;28;20390;-69
2020/12/23 07:22:50;;;;;;;2.33;1.00;;;11.50;99.90;;;;;;4999539;28;20481;-69
2020/12/23 07:25:23;;;;;;;1.13;1.02;;;11.50;99.90;;;;;;4991455;28;20191;-69
2020/12/23 07:27:56;;;;;;;3.25;1.40;;;11.50;99.90;;;;;;4991952;28;20125;-68
2020/12/23 07:30:22;;;;;;;;;;;11.50;99.90;;;;;;5006068;28;20064;-68
2020/12/23 07:33:19;;;;;;;2.10;1.45;;;11.60;99.90;;;;;;5010680;28;19920;-69
2020/12/23 07:35:46;;;;;;;1.23;1.10;;;11.50;99.90;;;;;;5005841;28;20030;-70
2020/12/23 07:38:13;;;;;;;1.50;1.00;;;11.60;99.90;;;;;;5009465;28;20101;-68
2020/12/23 07:40:40;;;;;;;1.67;1.00;;;11.60;99.90;;;;;;5011658;28;20045;-70
2020/12/23 07:43:06;;;;;;;1.30;1.20;;;11.60;99.90;;;;;;5011122;28;20538;-68
2020/12/23 07:45:33;;;;;;;4.55;1.35;;;11.60;99.90;;;;;;5010789;28;20053;-68
2020/12/23 07:48:13;;;;;;;1.90;0.90;;;11.70;99.90;;;;;;5011565;28;20026;-68
2020/12/23 07:50:41;;;;;;;3.05;1.10;;;11.70;99.90;;;;;;5011636;28;20083;-68
2020/12/23 07:53:12;;;;;;;2.25;1.10;;;11.80;99.90;;;;;;5011021;28;20029;-67
2020/12/23 07:55:39;;;;;;;4.80;1.40;;;11.80;99.90;;;;;;5010108;28;20036;-67
2020/12/23 07:58:05;;;;;;;3.03;1.15;;;11.90;99.90;;;;;;5011622;28;20025;-67
2020/12/23 08:00:31;;;;;;;3.13;1.23;;;12.00;99.90;;;;;;5011349;28;20357;-68
2020/12/23 08:02:57;;;;;;;1.27;1.10;;;12.00;99.90;;;;;;5011133;28;20555;-75
2020/12/23 08:05:22;;;;;;;2.25;1.10;;;12.20;99.90;;;;;;5011531;28;20040;-74
2020/12/23 08:07:48;;;;;;;2.83;1.10;;;12.50;99.90;;;;;;5011749;28;20109;-74
2020/12/23 08:10:16;;;;;;;0.90;0.90;;;12.60;99.90;;;;;;5011284;28;20369;-73
2020/12/23 08:12:51;;;;;;;1.10;1.00;;;12.70;99.90;;;;;;5010861;28;20444;-67
2020/12/23 08:15:17;;;;;;;5.13;1.00;;;12.80;99.90;;;;;;5011268;28;20543;-68
2020/12/23 08:17:42;;;;;;;0.80;0.80;;;12.80;99.90;;;;;;4994665;28;20030;-67
2020/12/23 08:20:13;;;;;;;2.17;0.70;;;12.90;99.90;;;;;;4991955;28;20022;-68
2020/12/23 08:22:40;;;;;;;0.80;0.80;;;12.80;99.90;;;;;;4991399;28;20467;-68
2020/12/23 08:25:08;;;;;;;2.03;0.80;;;12.90;99.90;;;;;;5009579;28;20034;-69
2020/12/23 08:27:34;;;;;;;1.88;0.93;;;12.90;99.90;;;;;;5010297;28;20026;-69
2020/12/23 08:30:03;;;;;;;1.00;0.80;;;12.90;99.90;;;;;;5010854;28;20022;-69
2020/12/23 08:32:34;;;;;;;1.00;0.80;;;12.90;99.90;;;;;;5013056;28;20077;-69
2020/12/23 08:35:03;;;;;;;1.30;1.20;;;13.00;99.90;;;;;;5021069;28;20018;-69
2020/12/23 08:37:29;;;;;;;1.75;1.20;;;13.00;99.90;;;;;;5035072;28;20022;-68
2020/12/23 08:39:59;;;;;;;1.23;1.02;;;13.10;99.90;;;;;;5019080;28;20033;-68
2020/12/23 08:42:25;;;;;;;1.10;1.00;;;13.10;99.90;;;;;;5014632;28;20095;-68
2020/12/23 08:44:54;;;;;;;1.95;1.13;;;13.10;99.90;;;;;;5013701;28;20026;-68
2020/12/23 08:47:24;;;;;;;1.15;0.80;;;13.20;99.90;;;;;;5014551;28;20026;-69
2020/12/23 08:49:52;;;;;;;2.25;0.90;;;13.20;99.90;;;;;;5013398;28;20025;-68
2020/12/23 08:52:19;;;;;;;0.93;0.80;;;13.30;99.90;;;;;;5014464;28;20028;-68
2020/12/23 08:54:45;;;;;;;2.65;1.08;;;13.30;99.90;;;;;;5013865;28;20104;-65
2020/12/23 08:57:24;;;;;;;1.30;1.00;;;13.40;99.90;;;;;;5013960;28;20018;-65
2020/12/23 08:59:51;;;;;;;0.90;0.90;;;13.40;99.90;;;;;;5014418;28;20018;-65
2020/12/23 09:02:17;;;;;;;1.10;1.00;;;13.40;99.90;;;;;;5013652;28;20068;-65
2020/12/23 09:04:43;;;;;;;2.67;0.90;;;13.50;99.90;;;;;;5013351;28;20026;-65
2020/12/23 09:07:09;;;;;;;1.50;1.00;;;13.50;99.90;;;;;;5013787;28;20084;-66
2020/12/23 09:09:36;;;;;;;6.50;0.98;;;13.50;99.90;;;;;;5014149;28;20564;-64
2020/12/23 09:12:04;;;;;;;0.93;0.90;;;13.60;99.90;;;;;;5012532;28;20034;-65
2020/12/23 09:14:40;;;;;;;1.35;1.10;;;13.70;99.90;;;;;;5013389;28;20037;-65
2020/12/23 09:17:12;;;;;;;1.60;1.15;;;13.70;99.90;;;;;;5014018;28;20033;-67
2020/12/23 09:19:57;;;;;;;;;;;13.80;99.90;;;;;;5014550;28;20476;-65
2020/12/23 09:22:29;;;;;;;1.40;1.30;;;13.90;99.90;;;;;;5013983;28;19913;-67
2020/12/23 09:25:17;;;;;;;0.80;0.80;;;13.90;99.90;;;;;;4996049;28;20031;-66
2020/12/23 09:27:48;;;;;;;4.20;1.10;;;14.00;99.90;;;;;;5001116;28;20092;-64
2020/12/23 09:30:28;;;;;;;1.50;0.90;;;14.00;99.90;;;;;;5004749;28;20029;-66
2020/12/23 09:32:53;;;;;;;1.23;1.15;;;13.90;99.90;;;;;;5040489;28;20129;-65
2020/12/23 09:35:23;;;;;;;3.35;1.10;;;14.00;99.90;;;;;;5003677;28;20032;-64
2020/12/23 09:38:01;;;;;;;1.30;1.20;;;13.90;99.90;;;;;;5004537;28;20045;-65
2020/12/23 09:40:26;;;;;;;0.93;0.90;;;14.00;99.90;;;;;;5000849;28;20029;-67
2020/12/23 09:42:52;;;;;;;1.40;0.90;;;14.00;99.90;;;;;;5005275;28;20093;-66
2020/12/23 09:45:18;;;;;;;0.75;0.75;;;14.00;99.90;;;;;;4998118;28;20104;-70
2020/12/23 09:47:43;;;;;;;2.22;1.20;;;14.10;99.90;;;;;;5010145;28;20027;-70
2020/12/23 09:50:10;;;;;;;2.17;0.90;;;14.20;99.90;;;;;;5007922;28;20022;-70
2020/12/23 09:52:36;;;;;;;1.10;1.00;;;14.20;99.90;;;;;;5003119;28;20026;-70
2020/12/23 09:55:02;;;;;;;2.92;2.72;;;14.40;99.90;;;;;;4999856;28;20039;-70
2020/12/23 09:57:28;;;;;;;2.53;2.13;;;14.40;99.90;;;;;;5004630;28;20025;-70
2020/12/23 09:59:54;;;;;;;2.28;2.08;;;14.50;99.90;;;;;;5002925;28;20049;-71
2020/12/23 10:02:19;;;;;;;4.30;1.20;;;14.80;99.90;;;;;;5001304;28;20034;-70
2020/12/23 10:04:45;;;;;;;1.25;1.15;;;14.90;99.90;;;;;;5006335;28;20033;-71
2020/12/23 10:07:11;;;;;;;43.28;32.00;;;15.20;99.90;;;;;;4999106;28;20040;-70
2020/12/23 10:09:37;;;;;;;9.20;6.18;;;15.50;99.90;;;;;;5000870;28;20027;-69
2020/12/23 10:12:03;;;;;;;5.20;1.40;;;15.70;99.90;;;;;;4997672;28;21056;-69
2020/12/23 10:14:28;;;;;;;5.55;1.20;;;15.80;99.90;;;;;;5005526;28;20050;-70
2020/12/23 10:16:54;;;;;;;2.70;1.10;;;15.90;99.90;;;;;;5002161;28;20054;-70
2020/12/23 10:19:20;;;;;;;1.65;1.17;;;16.10;99.90;;;;;;5003147;28;20105;-70
2020/12/23 10:21:45;;;;;;;1.30;1.20;;;15.80;99.90;;;;;;5004356;28;20384;-70
2020/12/23 10:24:11;;;;;;;1.33;1.20;;;15.90;99.90;;;;;;5011941;28;20377;-70
2020/12/23 10:26:37;;;;;;;1.38;1.27;;;16.10;99.90;;;;;;5007508;28;20037;-70
2020/12/23 10:29:02;;;;;;;2.03;1.27;;;16.10;99.90;;;;;;5012374;28;20502;-70
2020/12/23 10:31:28;;;;;;;5.70;4.05;;;16.10;99.90;;;;;;5008180;28;20472;-71
2020/12/23 10:33:54;;;;;;;1.38;1.27;;;16.20;99.90;;;;;;5000257;28;20034;-71
2020/12/23 10:36:19;;;;;;;1.77;0.95;;;16.10;99.90;;;;;;5007658;28;20066;-71
2020/12/23 10:38:45;;;;;;;0.90;0.90;;;16.00;99.90;;;;;;5009741;28;20468;-71
2020/12/23 10:41:11;;;;;;;1.30;1.20;;;16.30;99.90;;;;;;5017110;28;20021;-72
2020/12/23 10:43:37;;;;;;;1.45;1.30;;;16.60;99.90;;;;;;5015377;28;20026;-71
2020/12/23 10:46:07;;;;;;;2.45;1.58;;;16.80;99.90;;;;;;5009238;28;20026;-71
2020/12/23 10:48:33;;;;;;;2.75;1.80;;;16.90;99.90;;;;;;5011625;28;20540;-72
2020/12/23 10:51:02;;;;;;;2.17;1.30;;;17.00;99.90;;;;;;5009790;28;20061;-71
2020/12/23 10:53:27;;;;;;;1.70;1.60;;;17.10;99.90;;;;;;5005699;28;20512;-71
2020/12/23 10:55:53;;;;;;;2.53;1.92;;;17.50;99.90;;;;;;4995878;28;20030;-71
2020/12/23 10:58:18;;;;;;;2.55;1.90;;;17.80;99.90;;;;;;5004269;28;20021;-71
2020/12/23 11:00:44;;;;;;;3.30;1.98;;;18.10;99.90;;;;;;5009592;28;20025;-71
2020/12/23 11:03:10;;;;;;;1.80;1.60;;;18.30;99.90;;;;;;5004379;28;20120;-71
2020/12/23 11:05:36;;;;;;;2.80;2.05;;;18.30;99.90;;;;;;4994244;28;20501;-70
2020/12/23 11:08:02;;;;;;;6.13;1.60;;;18.90;99.90;;;;;;5000058;28;20093;-69
2020/12/23 11:10:27;;;;;;;1.40;1.30;;;18.80;99.90;;;;;;5001725;28;20048;-69
2020/12/23 11:12:53;;;;;;;3.92;1.60;;;18.90;99.90;;;;;;4999771;28;20037;-69
2020/12/23 11:15:19;;;;;;;1.77;1.33;;;19.10;99.90;;;;;;5001794;28;20044;-69
2020/12/23 11:17:45;;;;;;;1.35;1.25;;;19.00;99.90;;;;;;5004472;28;20021;-69
2020/12/23 11:20:11;;;;;;;1.30;1.20;;;18.70;99.90;;;;;;5000226;28;20026;-69
2020/12/23 11:22:36;;;;;;;1.60;1.25;;;18.40;99.90;;;;;;5005015;28;20723;-72
2020/12/23 11:25:04;;;;;;;1.50;1.40;;;17.80;99.90;;;;;;5001246;28;20109;-68
2020/12/23 11:27:29;;;;;;;4.97;1.50;;;17.70;99.90;;;;;;5001272;28;20022;-68
2020/12/23 11:29:55;;;;;;;1.63;1.30;;;17.40;99.90;;;;;;5000253;28;20029;-68
2020/12/23 11:32:21;;;;;;;1.77;1.30;;;17.10;99.90;;;;;;4999371;28;20806;-70
2020/12/23 11:34:47;;;;;;;2.63;1.33;;;16.70;99.90;;;;;;5000140;28;20022;-70
2020/12/23 11:37:12;;;;;;;1.80;1.33;;;16.50;99.90;;;;;;4997541;28;20401;-70
2020/12/23 11:39:38;;;;;;;1.65;1.15;;;16.20;99.90;;;;;;5000510;28;20389;-69
2020/12/23 11:42:04;;;;;;;2.90;1.05;;;16.10;99.90;;;;;;5001772;28;20499;-68
2020/12/23 11:44:29;;;;;;;2.22;1.30;;;16.20;99.90;;;;;;5016691;28;20025;-67
2020/12/23 11:46:55;;;;;;;1.40;1.10;;;16.20;99.90;;;;;;5029531;28;20105;-68
2020/12/23 11:49:22;;;;;;;3.03;1.25;;;16.30;99.90;;;;;;5013429;28;20018;-68
2020/12/23 11:51:51;;;;;;;1.58;1.20;;;16.60;99.90;;;;;;5002086;28;20052;-70
2020/12/23 11:54:18;;;;;;;2.45;1.00;;;16.70;99.90;;;;;;5001118;28;20022;-71
2020/12/23 11:56:45;;;;;;;2.45;1.20;;;16.80;99.90;;;;;;5009214;28;20110;-70
2020/12/23 11:59:11;;;;;;;1.60;1.30;;;17.10;99.90;;;;;;5002232;28;20018;-70
2020/12/23 12:01:37;;;;;;;1.88;1.20;;;17.00;99.90;;;;;;5005146;28;20019;-69
2020/12/23 12:04:03;;;;;;;1.25;1.15;;;17.00;99.90;;;;;;5002524;28;20023;-69
2020/12/23 12:06:28;;;;;;;1.48;1.10;;;16.80;99.90;;;;;;5007024;28;20107;-70
2020/12/23 12:08:54;;;;;;;1.35;1.13;;;16.60;99.90;;;;;;5009128;28;20034;-70
2020/12/23 12:11:20;;;;;;;0.85;0.82;;;16.50;99.90;;;;;;5006145;28;20085;-69
2020/12/23 12:13:45;;;;;;;1.30;1.20;;;16.60;99.90;;;;;;5006199;28;20025;-71
2020/12/23 12:16:11;;;;;;;1.63;1.42;;;16.50;99.90;;;;;;5014722;28;20108;-69
2020/12/23 12:18:39;;;;;;;3.25;0.95;;;16.60;99.90;;;;;;5015137;28;20025;-69
2020/12/23 12:21:04;;;;;;;2.33;1.40;;;16.70;99.90;;;;;;5003316;28;20563;-69
2020/12/23 12:23:30;;;;;;;1.42;1.00;;;17.10;99.90;;;;;;4996167;28;20034;-69
2020/12/23 12:25:56;;;;;;;2.78;1.10;;;17.40;99.90;;;;;;5000515;28;20034;-71
2020/12/23 12:28:21;;;;;;;0.88;0.80;;;17.90;99.90;;;;;;5007229;28;20037;-69
2020/12/23 12:30:47;;;;;;;1.70;1.10;;;17.90;99.90;;;;;;5049460;23;20359;-69
2020/12/23 12:33:15;;;;;;;2.13;1.00;;;18.00;99.90;;;;;;5041454;28;20124;-69
2020/12/23 12:35:42;;;;;;;1.40;0.90;;;17.90;99.90;;;;;;5034155;28;20040;-68
2020/12/23 12:38:08;;;;;;;1.48;1.20;;;18.00;99.90;;;;;;5034007;28;20025;-71
2020/12/23 12:40:34;;;;;;;1.58;1.40;;;18.00;99.90;;;;;;5034950;28;20031;-69
2020/12/23 12:43:02;;;;;;;1.33;1.10;;;17.90;99.90;;;;;;5033247;28;20022;-70
2020/12/23 12:45:29;;;;;;;2.00;1.30;;;17.70;99.90;;;;;;5033613;28;20025;-70
2020/12/23 12:47:55;;;;;;;2.85;1.20;;;17.50;99.90;;;;;;5032735;28;20814;-70
2020/12/23 12:50:20;;;;;;;1.40;1.10;;;17.40;99.90;;;;;;5032711;28;20030;-71